sensor_id;sensor_type;location;lat;lon;timestamp;P1;durP1;ratioP1;P2;durP2;ratioP2
27857;SDS011;16852;51.446;6.528;2023-11-19T00:01:37;2.20;;;1.75;;
27857;SDS011;16852;51.446;6.528;2023-11-19T00:03:37;2.47;;;2.05;;
27857;SDS011;16852;51.446;6.528;2023-11-19T00:05:38;2.85;;;2.03;;
27857;SDS011;16852;51.446;6.528;2023-11-19T00:07:40;3.10;;;1.60;;
27857;SDS011;16852;51.446;6.528;2023-11-19T00:09:44;5.75;;;1.80;;
27857;SDS011;16852;51.446;6.528;2023-11-19T00:11:44;2.47;;;1.77;;
27857;SDS011;16852;51.446;6.528;2023-11-19T00:13:45;1.88;;;1.60;;
27857;SDS011;16852;51.446;6.528;2023-11-19T00:15:46;4.60;;;1.63;;
27857;SDS011;16852;51.446;6.528;2023-11-19T00:17:47;4.15;;;1.65;;
27857;SDS011;16852;51.446;6.528;2023-11-19T00:19:48;1.60;;;1.50;;
27857;SDS011;16852;51.446;6.528;2023-11-19T00:21:51;1.55;;;1.45;;
27857;SDS011;16852;51.446;6.528;2023-11-19T00:23:52;3.83;;;1.73;;
27857;SDS011;16852;51.446;6.528;2023-11-19T00:25:53;7.82;;;1.73;;
27857;SDS011;16852;51.446;6.528;2023-11-19T00:27:53;1.30;;;1.20;;
27857;SDS011;16852;51.446;6.528;2023-11-19T00:29:56;1.95;;;1.25;;
27857;SDS011;16852;51.446;6.528;2023-11-19T00:31:56;1.33;;;1.20;;
27857;SDS011;16852;51.446;6.528;2023-11-19T00:33:57;1.50;;;1.00;;
27857;SDS011;16852;51.446;6.528;2023-11-19T00:35:58;1.48;;;1.30;;
27857;SDS011;16852;51.446;6.528;2023-11-19T00:37:58;5.97;;;1.67;;
27857;SDS011;16852;51.446;6.528;2023-11-19T00:40:00;2.30;;;1.30;;
27857;SDS011;16852;51.446;6.528;2023-11-19T00:42:01;1.85;;;1.23;;
27857;SDS011;16852;51.446;6.528;2023-11-19T00:44:02;2.30;;;1.27;;
27857;SDS011;16852;51.446;6.528;2023-11-19T00:46:02;2.00;;;1.13;;
27857;SDS011;16852;51.446;6.528;2023-11-19T00:48:04;2.15;;;1.00;;
27857;SDS011;16852;51.446;6.528;2023-11-19T00:50:05;3.13;;;1.35;;
27857;SDS011;16852;51.446;6.528;2023-11-19T00:52:09;1.45;;;1.20;;
27857;SDS011;16852;51.446;6.528;2023-11-19T00:54:10;1.67;;;1.15;;
27857;SDS011;16852;51.446;6.528;2023-11-19T00:56:10;1.42;;;0.93;;
27857;SDS011;16852;51.446;6.528;2023-11-19T00:58:12;1.63;;;1.05;;
27857;SDS011;16852;51.446;6.528;2023-11-19T01:00:13;1.40;;;1.00;;
27857;SDS011;16852;51.446;6.528;2023-11-19T01:02:19;0.80;;;0.80;;
27857;SDS011;16852;51.446;6.528;2023-11-19T01:04:20;1.15;;;1.02;;
27857;SDS011;16852;51.446;6.528;2023-11-19T01:06:27;1.10;;;1.00;;
27857;SDS011;16852;51.446;6.528;2023-11-19T01:08:29;1.30;;;1.05;;
27857;SDS011;16852;51.446;6.528;2023-11-19T01:10:30;2.40;;;1.10;;
27857;SDS011;16852;51.446;6.528;2023-11-19T01:12:30;2.55;;;0.80;;
27857;SDS011;16852;51.446;6.528;2023-11-19T01:14:31;1.50;;;1.00;;
27857;SDS011;16852;51.446;6.528;2023-11-19T01:16:32;0.98;;;0.82;;
27857;SDS011;16852;51.446;6.528;2023-11-19T01:18:33;1.20;;;1.00;;
27857;SDS011;16852;51.446;6.528;2023-11-19T01:20:33;1.23;;;0.90;;
27857;SDS011;16852;51.446;6.528;2023-11-19T01:22:34;1.98;;;0.70;;
27857;SDS011;16852;51.446;6.528;2023-11-19T01:24:35;1.20;;;1.00;;
27857;SDS011;16852;51.446;6.528;2023-11-19T01:26:35;1.77;;;0.80;;
27857;SDS011;16852;51.446;6.528;2023-11-19T01:28:36;2.05;;;0.75;;
27857;SDS011;16852;51.446;6.528;2023-11-19T01:30:39;1.10;;;0.70;;
27857;SDS011;16852;51.446;6.528;2023-11-19T01:32:41;3.08;;;0.82;;
27857;SDS011;16852;51.446;6.528;2023-11-19T01:34:42;0.95;;;0.82;;
27857;SDS011;16852;51.446;6.528;2023-11-19T01:36:42;1.48;;;0.95;;
27857;SDS011;16852;51.446;6.528;2023-11-19T01:38:43;1.75;;;0.70;;
27857;SDS011;16852;51.446;6.528;2023-11-19T01:40:44;1.95;;;0.98;;
27857;SDS011;16852;51.446;6.528;2023-11-19T01:42:45;1.17;;;0.82;;
27857;SDS011;16852;51.446;6.528;2023-11-19T01:44:58;1.35;;;0.80;;
27857;SDS011;16852;51.446;6.528;2023-11-19T01:46:59;1.20;;;0.90;;
27857;SDS011;16852;51.446;6.528;2023-11-19T01:49:01;1.83;;;0.85;;
27857;SDS011;16852;51.446;6.528;2023-11-19T01:51:02;2.40;;;1.00;;
27857;SDS011;16852;51.446;6.528;2023-11-19T01:53:04;2.67;;;1.05;;
27857;SDS011;16852;51.446;6.528;2023-11-19T01:55:04;2.72;;;1.35;;
27857;SDS011;16852;51.446;6.528;2023-11-19T01:57:08;1.80;;;1.10;;
27857;SDS011;16852;51.446;6.528;2023-11-19T01:59:09;6.43;;;1.48;;
27857;SDS011;16852;51.446;6.528;2023-11-19T02:01:13;1.95;;;1.27;;
27857;SDS011;16852;51.446;6.528;2023-11-19T02:03:14;3.30;;;1.10;;
27857;SDS011;16852;51.446;6.528;2023-11-19T02:05:16;6.28;;;1.50;;
27857;SDS011;16852;51.446;6.528;2023-11-19T02:07:17;3.72;;;1.52;;
27857;SDS011;16852;51.446;6.528;2023-11-19T02:09:18;4.97;;;1.70;;
27857;SDS011;16852;51.446;6.528;2023-11-19T02:11:19;3.90;;;1.58;;
27857;SDS011;16852;51.446;6.528;2023-11-19T02:13:20;3.75;;;1.40;;
27857;SDS011;16852;51.446;6.528;2023-11-19T02:15:20;7.65;;;1.85;;
27857;SDS011;16852;51.446;6.528;2023-11-19T02:17:25;6.35;;;1.40;;
27857;SDS011;16852;51.446;6.528;2023-11-19T02:19:26;2.63;;;1.30;;
27857;SDS011;16852;51.446;6.528;2023-11-19T02:21:27;6.13;;;1.65;;
27857;SDS011;16852;51.446;6.528;2023-11-19T02:23:28;6.80;;;1.40;;
27857;SDS011;16852;51.446;6.528;2023-11-19T02:25:30;4.13;;;1.40;;
27857;SDS011;16852;51.446;6.528;2023-11-19T02:27:40;5.82;;;1.30;;
27857;SDS011;16852;51.446;6.528;2023-11-19T02:29:51;5.90;;;1.33;;
27857;SDS011;16852;51.446;6.528;2023-11-19T02:31:52;7.70;;;1.55;;
27857;SDS011;16852;51.446;6.528;2023-11-19T02:35:55;6.72;;;1.30;;
27857;SDS011;16852;51.446;6.528;2023-11-19T02:37:56;3.92;;;1.48;;
27857;SDS011;16852;51.446;6.528;2023-11-19T02:39:57;4.70;;;1.70;;
27857;SDS011;16852;51.446;6.528;2023-11-19T02:42:03;10.90;;;1.63;;
27857;SDS011;16852;51.446;6.528;2023-11-19T02:44:04;6.47;;;1.67;;
27857;SDS011;16852;51.446;6.528;2023-11-19T02:46:05;3.97;;;1.40;;
27857;SDS011;16852;51.446;6.528;2023-11-19T02:48:08;8.18;;;2.25;;
27857;SDS011;16852;51.446;6.528;2023-11-19T02:50:10;4.18;;;1.60;;
27857;SDS011;16852;51.446;6.528;2023-11-19T02:52:16;3.75;;;1.10;;
27857;SDS011;16852;51.446;6.528;2023-11-19T02:54:17;4.07;;;1.20;;
27857;SDS011;16852;51.446;6.528;2023-11-19T02:56:18;6.53;;;1.70;;
27857;SDS011;16852;51.446;6.528;2023-11-19T02:58:29;5.38;;;1.10;;
27857;SDS011;16852;51.446;6.528;2023-11-19T03:00:30;12.02;;;2.15;;
27857;SDS011;16852;51.446;6.528;2023-11-19T03:02:38;5.85;;;1.58;;
27857;SDS011;16852;51.446;6.528;2023-11-19T03:04:44;7.43;;;1.90;;
27857;SDS011;16852;51.446;6.528;2023-11-19T03:06:46;3.67;;;1.27;;
27857;SDS011;16852;51.446;6.528;2023-11-19T03:08:46;4.35;;;1.58;;
27857;SDS011;16852;51.446;6.528;2023-11-19T03:10:48;9.63;;;2.08;;
27857;SDS011;16852;51.446;6.528;2023-11-19T03:12:49;7.85;;;1.95;;
27857;SDS011;16852;51.446;6.528;2023-11-19T03:14:49;7.63;;;1.90;;
27857;SDS011;16852;51.446;6.528;2023-11-19T03:16:51;8.45;;;2.50;;
27857;SDS011;16852;51.446;6.528;2023-11-19T03:18:51;10.95;;;2.78;;
27857;SDS011;16852;51.446;6.528;2023-11-19T03:20:52;10.27;;;2.30;;
27857;SDS011;16852;51.446;6.528;2023-11-19T03:22:53;6.30;;;1.80;;
27857;SDS011;16852;51.446;6.528;2023-11-19T03:24:54;10.98;;;2.28;;
27857;SDS011;16852;51.446;6.528;2023-11-19T03:26:55;11.02;;;2.75;;
27857;SDS011;16852;51.446;6.528;2023-11-19T03:28:55;14.18;;;3.03;;
27857;SDS011;16852;51.446;6.528;2023-11-19T03:30:57;6.90;;;2.33;;
27857;SDS011;16852;51.446;6.528;2023-11-19T03:32:57;15.45;;;3.08;;
27857;SDS011;16852;51.446;6.528;2023-11-19T03:34:59;12.17;;;2.60;;
27857;SDS011;16852;51.446;6.528;2023-11-19T03:37:00;18.77;;;3.60;;
27857;SDS011;16852;51.446;6.528;2023-11-19T03:39:01;16.08;;;3.03;;
27857;SDS011;16852;51.446;6.528;2023-11-19T03:41:24;16.35;;;3.67;;
27857;SDS011;16852;51.446;6.528;2023-11-19T03:43:24;10.82;;;2.30;;
27857;SDS011;16852;51.446;6.528;2023-11-19T03:45:24;11.45;;;2.63;;
27857;SDS011;16852;51.446;6.528;2023-11-19T03:47:25;16.13;;;3.35;;
27857;SDS011;16852;51.446;6.528;2023-11-19T03:49:25;14.57;;;3.92;;
27857;SDS011;16852;51.446;6.528;2023-11-19T03:51:26;13.65;;;3.03;;
27857;SDS011;16852;51.446;6.528;2023-11-19T03:53:27;11.68;;;2.53;;
27857;SDS011;16852;51.446;6.528;2023-11-19T03:55:27;16.63;;;3.58;;
27857;SDS011;16852;51.446;6.528;2023-11-19T03:57:29;8.38;;;2.15;;
27857;SDS011;16852;51.446;6.528;2023-11-19T03:59:30;12.40;;;2.95;;
27857;SDS011;16852;51.446;6.528;2023-11-19T04:01:30;14.00;;;3.00;;
27857;SDS011;16852;51.446;6.528;2023-11-19T04:03:31;9.02;;;2.95;;
27857;SDS011;16852;51.446;6.528;2023-11-19T04:05:32;18.92;;;3.30;;
27857;SDS011;16852;51.446;6.528;2023-11-19T04:07:33;13.18;;;2.80;;
27857;SDS011;16852;51.446;6.528;2023-11-19T04:09:34;16.20;;;2.88;;
27857;SDS011;16852;51.446;6.528;2023-11-19T04:11:35;17.55;;;3.45;;
27857;SDS011;16852;51.446;6.528;2023-11-19T04:13:36;8.95;;;2.28;;
27857;SDS011;16852;51.446;6.528;2023-11-19T04:15:36;15.88;;;2.92;;
27857;SDS011;16852;51.446;6.528;2023-11-19T04:17:37;19.38;;;3.85;;
27857;SDS011;16852;51.446;6.528;2023-11-19T04:19:38;15.93;;;3.10;;
27857;SDS011;16852;51.446;6.528;2023-11-19T04:21:41;15.73;;;3.13;;
27857;SDS011;16852;51.446;6.528;2023-11-19T04:23:42;20.83;;;3.72;;
27857;SDS011;16852;51.446;6.528;2023-11-19T04:25:42;18.85;;;3.75;;
27857;SDS011;16852;51.446;6.528;2023-11-19T04:27:43;20.85;;;3.53;;
27857;SDS011;16852;51.446;6.528;2023-11-19T04:29:43;15.75;;;3.80;;
27857;SDS011;16852;51.446;6.528;2023-11-19T04:31:46;26.17;;;4.63;;
27857;SDS011;16852;51.446;6.528;2023-11-19T04:33:46;12.07;;;2.92;;
27857;SDS011;16852;51.446;6.528;2023-11-19T04:35:47;21.80;;;4.20;;
27857;SDS011;16852;51.446;6.528;2023-11-19T04:37:47;22.17;;;4.40;;
27857;SDS011;16852;51.446;6.528;2023-11-19T04:39:48;23.55;;;4.40;;
27857;SDS011;16852;51.446;6.528;2023-11-19T04:41:49;18.70;;;3.70;;
27857;SDS011;16852;51.446;6.528;2023-11-19T04:43:53;22.67;;;3.72;;
27857;SDS011;16852;51.446;6.528;2023-11-19T04:45:54;20.42;;;3.65;;
27857;SDS011;16852;51.446;6.528;2023-11-19T04:47:54;21.10;;;3.97;;
27857;SDS011;16852;51.446;6.528;2023-11-19T04:49:55;25.92;;;3.72;;
27857;SDS011;16852;51.446;6.528;2023-11-19T04:51:55;18.83;;;3.60;;
27857;SDS011;16852;51.446;6.528;2023-11-19T04:53:56;22.20;;;4.32;;
27857;SDS011;16852;51.446;6.528;2023-11-19T04:55:56;16.92;;;3.92;;
27857;SDS011;16852;51.446;6.528;2023-11-19T04:57:57;15.07;;;3.47;;
27857;SDS011;16852;51.446;6.528;2023-11-19T04:59:58;22.15;;;3.88;;
27857;SDS011;16852;51.446;6.528;2023-11-19T05:01:58;26.00;;;4.47;;
27857;SDS011;16852;51.446;6.528;2023-11-19T05:03:59;17.05;;;3.35;;
27857;SDS011;16852;51.446;6.528;2023-11-19T05:06:00;22.40;;;4.28;;
27857;SDS011;16852;51.446;6.528;2023-11-19T05:08:02;26.00;;;4.80;;
27857;SDS011;16852;51.446;6.528;2023-11-19T05:10:02;18.65;;;3.90;;
27857;SDS011;16852;51.446;6.528;2023-11-19T05:12:04;22.15;;;4.05;;
27857;SDS011;16852;51.446;6.528;2023-11-19T05:14:05;20.23;;;3.72;;
27857;SDS011;16852;51.446;6.528;2023-11-19T05:16:06;19.67;;;3.55;;
27857;SDS011;16852;51.446;6.528;2023-11-19T05:18:06;20.05;;;3.78;;
27857;SDS011;16852;51.446;6.528;2023-11-19T05:20:07;24.98;;;4.15;;
27857;SDS011;16852;51.446;6.528;2023-11-19T05:22:13;14.80;;;2.65;;
27857;SDS011;16852;51.446;6.528;2023-11-19T05:24:13;17.67;;;3.50;;
27857;SDS011;16852;51.446;6.528;2023-11-19T05:26:20;27.08;;;4.63;;
27857;SDS011;16852;51.446;6.528;2023-11-19T05:28:22;21.85;;;4.10;;
27857;SDS011;16852;51.446;6.528;2023-11-19T05:30:24;22.60;;;4.63;;
27857;SDS011;16852;51.446;6.528;2023-11-19T05:32:25;17.77;;;3.88;;
27857;SDS011;16852;51.446;6.528;2023-11-19T05:34:27;18.42;;;4.28;;
27857;SDS011;16852;51.446;6.528;2023-11-19T05:36:27;25.45;;;4.63;;
27857;SDS011;16852;51.446;6.528;2023-11-19T05:38:29;29.55;;;4.90;;
27857;SDS011;16852;51.446;6.528;2023-11-19T05:40:29;17.73;;;3.50;;
27857;SDS011;16852;51.446;6.528;2023-11-19T05:42:30;19.70;;;4.25;;
27857;SDS011;16852;51.446;6.528;2023-11-19T05:44:31;24.23;;;5.07;;
27857;SDS011;16852;51.446;6.528;2023-11-19T05:46:32;17.80;;;3.80;;
27857;SDS011;16852;51.446;6.528;2023-11-19T05:48:32;20.85;;;4.05;;
27857;SDS011;16852;51.446;6.528;2023-11-19T05:50:33;20.25;;;4.20;;
27857;SDS011;16852;51.446;6.528;2023-11-19T05:52:34;26.70;;;4.70;;
27857;SDS011;16852;51.446;6.528;2023-11-19T05:54:35;26.88;;;4.50;;
27857;SDS011;16852;51.446;6.528;2023-11-19T05:56:37;25.63;;;5.38;;
27857;SDS011;16852;51.446;6.528;2023-11-19T05:58:38;26.67;;;4.88;;
27857;SDS011;16852;51.446;6.528;2023-11-19T06:00:40;18.77;;;3.90;;
27857;SDS011;16852;51.446;6.528;2023-11-19T06:02:42;21.73;;;4.22;;
27857;SDS011;16852;51.446;6.528;2023-11-19T06:04:43;21.83;;;4.28;;
27857;SDS011;16852;51.446;6.528;2023-11-19T06:06:44;17.60;;;4.40;;
27857;SDS011;16852;51.446;6.528;2023-11-19T06:08:45;19.33;;;4.82;;
27857;SDS011;16852;51.446;6.528;2023-11-19T06:10:47;23.75;;;4.45;;
27857;SDS011;16852;51.446;6.528;2023-11-19T06:12:50;18.27;;;4.05;;
27857;SDS011;16852;51.446;6.528;2023-11-19T06:14:56;12.88;;;3.38;;
27857;SDS011;16852;51.446;6.528;2023-11-19T06:16:56;19.50;;;3.95;;
27857;SDS011;16852;51.446;6.528;2023-11-19T06:18:57;19.88;;;4.28;;
27857;SDS011;16852;51.446;6.528;2023-11-19T06:20:58;20.45;;;4.53;;
27857;SDS011;16852;51.446;6.528;2023-11-19T06:22:58;27.05;;;5.30;;
27857;SDS011;16852;51.446;6.528;2023-11-19T06:25:00;26.17;;;5.55;;
27857;SDS011;16852;51.446;6.528;2023-11-19T06:27:01;23.30;;;4.40;;
27857;SDS011;16852;51.446;6.528;2023-11-19T06:29:02;19.42;;;4.75;;
27857;SDS011;16852;51.446;6.528;2023-11-19T06:31:03;33.40;;;6.10;;
27857;SDS011;16852;51.446;6.528;2023-11-19T06:33:04;26.73;;;5.47;;
27857;SDS011;16852;51.446;6.528;2023-11-19T06:35:05;18.98;;;4.35;;
27857;SDS011;16852;51.446;6.528;2023-11-19T06:37:06;22.67;;;5.05;;
27857;SDS011;16852;51.446;6.528;2023-11-19T06:39:09;25.27;;;5.07;;
27857;SDS011;16852;51.446;6.528;2023-11-19T06:41:11;31.08;;;4.88;;
27857;SDS011;16852;51.446;6.528;2023-11-19T06:43:12;23.27;;;5.25;;
27857;SDS011;16852;51.446;6.528;2023-11-19T06:45:13;31.55;;;5.68;;
27857;SDS011;16852;51.446;6.528;2023-11-19T06:47:14;27.42;;;4.53;;
27857;SDS011;16852;51.446;6.528;2023-11-19T06:49:15;34.05;;;6.07;;
27857;SDS011;16852;51.446;6.528;2023-11-19T06:51:16;20.33;;;4.35;;
27857;SDS011;16852;51.446;6.528;2023-11-19T06:53:17;22.55;;;4.50;;
27857;SDS011;16852;51.446;6.528;2023-11-19T06:55:18;28.45;;;5.15;;
27857;SDS011;16852;51.446;6.528;2023-11-19T06:57:18;23.73;;;4.60;;
27857;SDS011;16852;51.446;6.528;2023-11-19T06:59:20;19.27;;;4.33;;
27857;SDS011;16852;51.446;6.528;2023-11-19T07:01:21;16.90;;;3.95;;
27857;SDS011;16852;51.446;6.528;2023-11-19T07:03:22;27.23;;;4.93;;
27857;SDS011;16852;51.446;6.528;2023-11-19T07:05:23;23.73;;;5.32;;
27857;SDS011;16852;51.446;6.528;2023-11-19T07:07:24;22.77;;;4.07;;
27857;SDS011;16852;51.446;6.528;2023-11-19T07:09:24;25.15;;;4.55;;
27857;SDS011;16852;51.446;6.528;2023-11-19T07:11:25;28.75;;;5.03;;
27857;SDS011;16852;51.446;6.528;2023-11-19T07:13:25;22.98;;;4.97;;
27857;SDS011;16852;51.446;6.528;2023-11-19T07:15:27;24.92;;;4.78;;
27857;SDS011;16852;51.446;6.528;2023-11-19T07:17:29;20.98;;;3.85;;
27857;SDS011;16852;51.446;6.528;2023-11-19T07:19:30;20.73;;;4.10;;
27857;SDS011;16852;51.446;6.528;2023-11-19T07:21:31;22.58;;;4.30;;
27857;SDS011;16852;51.446;6.528;2023-11-19T07:23:33;24.80;;;4.57;;
27857;SDS011;16852;51.446;6.528;2023-11-19T07:25:34;17.13;;;4.07;;
27857;SDS011;16852;51.446;6.528;2023-11-19T07:27:35;20.58;;;3.97;;
27857;SDS011;16852;51.446;6.528;2023-11-19T07:29:36;23.33;;;4.57;;
27857;SDS011;16852;51.446;6.528;2023-11-19T07:31:36;22.70;;;4.65;;
27857;SDS011;16852;51.446;6.528;2023-11-19T07:33:37;16.70;;;4.18;;
27857;SDS011;16852;51.446;6.528;2023-11-19T07:35:39;13.93;;;4.30;;
27857;SDS011;16852;51.446;6.528;2023-11-19T07:39:43;19.65;;;4.60;;
27857;SDS011;16852;51.446;6.528;2023-11-19T07:41:44;19.65;;;4.28;;
27857;SDS011;16852;51.446;6.528;2023-11-19T07:43:44;16.23;;;3.67;;
27857;SDS011;16852;51.446;6.528;2023-11-19T07:45:46;21.50;;;4.32;;
27857;SDS011;16852;51.446;6.528;2023-11-19T07:47:47;20.08;;;4.22;;
27857;SDS011;16852;51.446;6.528;2023-11-19T07:49:47;32.50;;;7.22;;
27857;SDS011;16852;51.446;6.528;2023-11-19T07:51:48;30.73;;;5.93;;
27857;SDS011;16852;51.446;6.528;2023-11-19T07:53:48;22.00;;;4.25;;
27857;SDS011;16852;51.446;6.528;2023-11-19T07:55:49;20.15;;;4.55;;
27857;SDS011;16852;51.446;6.528;2023-11-19T07:57:50;19.10;;;3.40;;
27857;SDS011;16852;51.446;6.528;2023-11-19T07:59:51;16.38;;;4.35;;
27857;SDS011;16852;51.446;6.528;2023-11-19T08:01:51;21.38;;;4.60;;
27857;SDS011;16852;51.446;6.528;2023-11-19T08:03:52;26.33;;;4.43;;
27857;SDS011;16852;51.446;6.528;2023-11-19T08:05:57;21.52;;;4.60;;
27857;SDS011;16852;51.446;6.528;2023-11-19T08:07:58;25.52;;;5.00;;
27857;SDS011;16852;51.446;6.528;2023-11-19T08:09:58;30.38;;;5.10;;
27857;SDS011;16852;51.446;6.528;2023-11-19T08:12:00;23.52;;;5.40;;
27857;SDS011;16852;51.446;6.528;2023-11-19T08:14:00;23.73;;;4.72;;
27857;SDS011;16852;51.446;6.528;2023-11-19T08:16:01;30.33;;;5.18;;
27857;SDS011;16852;51.446;6.528;2023-11-19T08:18:02;26.80;;;4.82;;
27857;SDS011;16852;51.446;6.528;2023-11-19T08:20:03;19.20;;;4.05;;
27857;SDS011;16852;51.446;6.528;2023-11-19T08:22:05;24.83;;;5.07;;
27857;SDS011;16852;51.446;6.528;2023-11-19T08:24:05;22.77;;;4.88;;
27857;SDS011;16852;51.446;6.528;2023-11-19T08:26:06;24.15;;;4.60;;
27857;SDS011;16852;51.446;6.528;2023-11-19T08:28:06;19.90;;;4.13;;
27857;SDS011;16852;51.446;6.528;2023-11-19T08:30:08;20.27;;;4.03;;
27857;SDS011;16852;51.446;6.528;2023-11-19T08:32:09;16.70;;;4.00;;
27857;SDS011;16852;51.446;6.528;2023-11-19T08:34:11;16.50;;;4.20;;
27857;SDS011;16852;51.446;6.528;2023-11-19T08:36:15;24.38;;;4.05;;
27857;SDS011;16852;51.446;6.528;2023-11-19T08:38:16;24.90;;;5.45;;
27857;SDS011;16852;51.446;6.528;2023-11-19T08:40:17;27.65;;;5.03;;
27857;SDS011;16852;51.446;6.528;2023-11-19T08:42:18;16.67;;;4.28;;
27857;SDS011;16852;51.446;6.528;2023-11-19T08:44:19;18.42;;;4.53;;
27857;SDS011;16852;51.446;6.528;2023-11-19T08:46:19;18.23;;;3.97;;
27857;SDS011;16852;51.446;6.528;2023-11-19T08:48:20;16.90;;;3.80;;
27857;SDS011;16852;51.446;6.528;2023-11-19T08:50:21;19.65;;;4.43;;
27857;SDS011;16852;51.446;6.528;2023-11-19T08:52:22;26.52;;;5.07;;
27857;SDS011;16852;51.446;6.528;2023-11-19T08:54:22;20.20;;;4.32;;
27857;SDS011;16852;51.446;6.528;2023-11-19T08:56:23;13.93;;;3.65;;
27857;SDS011;16852;51.446;6.528;2023-11-19T08:58:23;22.50;;;4.45;;
27857;SDS011;16852;51.446;6.528;2023-11-19T09:00:24;20.50;;;4.50;;
27857;SDS011;16852;51.446;6.528;2023-11-19T09:02:25;19.15;;;4.18;;
27857;SDS011;16852;51.446;6.528;2023-11-19T09:04:25;18.55;;;4.03;;
27857;SDS011;16852;51.446;6.528;2023-11-19T09:06:26;22.60;;;4.53;;
27857;SDS011;16852;51.446;6.528;2023-11-19T09:08:27;20.30;;;4.97;;
27857;SDS011;16852;51.446;6.528;2023-11-19T09:10:28;16.73;;;4.05;;
27857;SDS011;16852;51.446;6.528;2023-11-19T09:12:29;27.20;;;4.78;;
27857;SDS011;16852;51.446;6.528;2023-11-19T09:14:31;25.08;;;4.88;;
27857;SDS011;16852;51.446;6.528;2023-11-19T09:16:32;20.27;;;4.63;;
27857;SDS011;16852;51.446;6.528;2023-11-19T09:18:32;23.88;;;4.78;;
27857;SDS011;16852;51.446;6.528;2023-11-19T09:20:34;27.33;;;5.15;;
27857;SDS011;16852;51.446;6.528;2023-11-19T09:22:38;21.00;;;4.50;;
27857;SDS011;16852;51.446;6.528;2023-11-19T09:24:38;30.48;;;5.43;;
27857;SDS011;16852;51.446;6.528;2023-11-19T09:26:39;23.95;;;4.82;;
27857;SDS011;16852;51.446;6.528;2023-11-19T09:28:41;29.60;;;5.85;;
27857;SDS011;16852;51.446;6.528;2023-11-19T09:30:42;25.35;;;4.70;;
27857;SDS011;16852;51.446;6.528;2023-11-19T09:32:43;22.20;;;4.28;;
27857;SDS011;16852;51.446;6.528;2023-11-19T09:34:44;23.35;;;4.28;;
27857;SDS011;16852;51.446;6.528;2023-11-19T09:36:45;27.15;;;5.90;;
27857;SDS011;16852;51.446;6.528;2023-11-19T09:38:45;18.00;;;4.05;;
27857;SDS011;16852;51.446;6.528;2023-11-19T09:40:46;14.57;;;4.18;;
27857;SDS011;16852;51.446;6.528;2023-11-19T09:42:47;28.70;;;5.03;;
27857;SDS011;16852;51.446;6.528;2023-11-19T09:44:48;17.60;;;4.50;;
27857;SDS011;16852;51.446;6.528;2023-11-19T09:46:49;22.30;;;4.10;;
27857;SDS011;16852;51.446;6.528;2023-11-19T09:48:51;18.73;;;4.47;;
27857;SDS011;16852;51.446;6.528;2023-11-19T09:50:56;26.30;;;4.35;;
27857;SDS011;16852;51.446;6.528;2023-11-19T09:52:58;25.20;;;4.50;;
27857;SDS011;16852;51.446;6.528;2023-11-19T09:54:59;22.70;;;5.22;;
27857;SDS011;16852;51.446;6.528;2023-11-19T09:56:59;22.35;;;4.18;;
27857;SDS011;16852;51.446;6.528;2023-11-19T09:59:05;29.50;;;5.68;;
27857;SDS011;16852;51.446;6.528;2023-11-19T10:01:06;19.00;;;4.28;;
27857;SDS011;16852;51.446;6.528;2023-11-19T10:03:10;29.10;;;5.32;;
27857;SDS011;16852;51.446;6.528;2023-11-19T10:05:13;24.38;;;5.30;;
27857;SDS011;16852;51.446;6.528;2023-11-19T10:07:14;28.42;;;5.45;;
27857;SDS011;16852;51.446;6.528;2023-11-19T10:09:15;27.75;;;5.75;;
27857;SDS011;16852;51.446;6.528;2023-11-19T10:11:16;22.30;;;4.93;;
27857;SDS011;16852;51.446;6.528;2023-11-19T10:13:17;37.70;;;5.70;;
27857;SDS011;16852;51.446;6.528;2023-11-19T10:15:21;21.70;;;4.80;;
27857;SDS011;16852;51.446;6.528;2023-11-19T10:17:27;20.60;;;4.45;;
27857;SDS011;16852;51.446;6.528;2023-11-19T10:21:32;24.98;;;5.60;;
27857;SDS011;16852;51.446;6.528;2023-11-19T10:23:50;27.13;;;5.47;;
27857;SDS011;16852;51.446;6.528;2023-11-19T10:28:07;21.65;;;4.95;;
27857;SDS011;16852;51.446;6.528;2023-11-19T10:30:07;17.65;;;4.45;;
27857;SDS011;16852;51.446;6.528;2023-11-19T10:32:11;27.92;;;5.90;;
27857;SDS011;16852;51.446;6.528;2023-11-19T10:34:24;18.58;;;4.13;;
27857;SDS011;16852;51.446;6.528;2023-11-19T10:36:37;26.20;;;4.70;;
27857;SDS011;16852;51.446;6.528;2023-11-19T10:38:41;27.63;;;5.50;;
27857;SDS011;16852;51.446;6.528;2023-11-19T10:40:55;24.50;;;5.38;;
27857;SDS011;16852;51.446;6.528;2023-11-19T10:43:02;27.52;;;5.18;;
27857;SDS011;16852;51.446;6.528;2023-11-19T10:45:03;19.90;;;4.75;;
27857;SDS011;16852;51.446;6.528;2023-11-19T10:47:05;21.77;;;4.68;;
27857;SDS011;16852;51.446;6.528;2023-11-19T10:49:08;20.02;;;4.72;;
27857;SDS011;16852;51.446;6.528;2023-11-19T10:51:09;29.67;;;5.72;;
27857;SDS011;16852;51.446;6.528;2023-11-19T10:53:11;24.05;;;5.85;;
27857;SDS011;16852;51.446;6.528;2023-11-19T10:55:15;22.20;;;5.40;;
27857;SDS011;16852;51.446;6.528;2023-11-19T10:57:21;20.77;;;4.53;;
27857;SDS011;16852;51.446;6.528;2023-11-19T10:59:22;23.73;;;4.63;;
27857;SDS011;16852;51.446;6.528;2023-11-19T11:01:23;19.25;;;4.57;;
27857;SDS011;16852;51.446;6.528;2023-11-19T11:03:27;22.65;;;4.07;;
27857;SDS011;16852;51.446;6.528;2023-11-19T11:05:32;25.23;;;4.72;;
27857;SDS011;16852;51.446;6.528;2023-11-19T11:07:34;18.98;;;4.22;;
27857;SDS011;16852;51.446;6.528;2023-11-19T11:09:35;23.40;;;4.93;;
27857;SDS011;16852;51.446;6.528;2023-11-19T11:11:36;19.20;;;4.05;;
27857;SDS011;16852;51.446;6.528;2023-11-19T11:13:38;19.52;;;4.07;;
27857;SDS011;16852;51.446;6.528;2023-11-19T11:15:42;19.75;;;4.22;;
27857;SDS011;16852;51.446;6.528;2023-11-19T11:17:46;23.65;;;4.88;;
27857;SDS011;16852;51.446;6.528;2023-11-19T11:19:48;26.80;;;4.88;;
27857;SDS011;16852;51.446;6.528;2023-11-19T11:21:50;21.60;;;4.68;;
27857;SDS011;16852;51.446;6.528;2023-11-19T11:24:03;19.27;;;4.30;;
27857;SDS011;16852;51.446;6.528;2023-11-19T11:28:26;14.45;;;3.70;;
27857;SDS011;16852;51.446;6.528;2023-11-19T11:30:54;21.85;;;4.72;;
27857;SDS011;16852;51.446;6.528;2023-11-19T11:33:24;17.13;;;4.07;;
27857;SDS011;16852;51.446;6.528;2023-11-19T11:38:03;22.95;;;4.35;;
27857;SDS011;16852;51.446;6.528;2023-11-19T11:40:06;22.77;;;3.90;;
27857;SDS011;16852;51.446;6.528;2023-11-19T11:44:17;22.00;;;4.72;;
27857;SDS011;16852;51.446;6.528;2023-11-19T11:47:00;18.65;;;3.70;;
27857;SDS011;16852;51.446;6.528;2023-11-19T11:48:43;16.45;;;3.88;;
27857;SDS011;16852;51.446;6.528;2023-11-19T11:50:53;18.05;;;4.53;;
27857;SDS011;16852;51.446;6.528;2023-11-19T11:55:02;16.80;;;3.38;;
27857;SDS011;16852;51.446;6.528;2023-11-19T11:59:19;17.85;;;4.28;;
27857;SDS011;16852;51.446;6.528;2023-11-19T12:01:20;18.88;;;3.95;;
27857;SDS011;16852;51.446;6.528;2023-11-19T12:03:21;19.20;;;4.38;;
27857;SDS011;16852;51.446;6.528;2023-11-19T12:05:23;20.88;;;4.28;;
27857;SDS011;16852;51.446;6.528;2023-11-19T12:07:24;21.92;;;4.05;;
27857;SDS011;16852;51.446;6.528;2023-11-19T12:09:25;21.10;;;5.13;;
27857;SDS011;16852;51.446;6.528;2023-11-19T12:11:26;17.02;;;3.90;;
27857;SDS011;16852;51.446;6.528;2023-11-19T12:13:42;18.25;;;4.13;;
27857;SDS011;16852;51.446;6.528;2023-11-19T12:18:04;21.90;;;4.10;;
27857;SDS011;16852;51.446;6.528;2023-11-19T12:20:06;20.13;;;4.85;;
27857;SDS011;16852;51.446;6.528;2023-11-19T12:22:12;23.30;;;4.38;;
27857;SDS011;16852;51.446;6.528;2023-11-19T12:24:14;14.43;;;3.33;;
27857;SDS011;16852;51.446;6.528;2023-11-19T12:26:48;18.30;;;3.78;;
27857;SDS011;16852;51.446;6.528;2023-11-19T12:28:42;16.95;;;3.33;;
27857;SDS011;16852;51.446;6.528;2023-11-19T12:31:07;21.58;;;5.78;;